Terminal Aerodrome Forecast
Issued by NWS

Home | Current Version | Previous Version | Text Only | Print | Product List | Glossary On
Versions: 1 2 3 4 5 6 7 8 9 10 11 12 13 14 15 16 17 18 19 20 21 22
000
FTUS45 KABQ 300700 AAA
TAFLVS
TAF AMD
KLVS 300724Z 3007/3106 20007KT P6SM SCT035
     FM301100 33008KT P6SM SCT035 SCT090
     FM302200 07012G20KT P6SM VCTS SCT050CB BKN130
     FM310300 02011KT P6SM VCSH BKN035 BKN060=

USA.gov is the U.S. government's official web portal to all federal, state and local government web resources and services.